Rushville, OH

4:42 AM EDT on October 01, 2014 (GMT -0400)
Newark Heath | Change Station
CLOSE
Current Station
Airport
Location: Newark Heath,
Elevation: 883 ft
Nearby Weather Stations

Elev 883 ft 40.03 °N, 82.46 °W | Updated 48 minutes ago

Overcast
Overcast
50 °F
Feels Like 50 °F
N
4
Wind Variable Wind from NNE

Today
High -- | Low -- °F
--% Chance of Precip.
Yesterday
High -- | Low -- °F
Precip. -- in
7:25 AM 7:12 PM
Waxing Crescent, 45% visible
Pressure 29.99 in
Visibility 7.0 miles
Clouds Mostly Cloudy 900 ft
Mostly Cloudy 1300 ft
Overcast 2300 ft
Dew Point 48 °F
Humidity 93%
Rainfall 0.00 in
Snow Depth Not available.
UV 0 out of 12
Pollen 2.70 out of 12
Ozone Good
PM2.5 Good
Flu Activity Not available.
METAR KVTA 010754Z AUTO 02003KT 7SM BKN009 BKN013 OVC023 10/09 A2999 RMK AO2 CIG 007V011 SLP154 T01000089

More Conditions Fewer Conditions

Pressure 29.99 in
Visibility 7.0 miles
Clouds Mostly Cloudy 900 ft
Mostly Cloudy 1300 ft
Overcast 2300 ft
Dew Point 48 °F
Humidity 93%
Rainfall 0.00 in
Snow Depth Not available.
UV 0 out of 12
Pollen 2.70 out of 12
Ozone Good
PM2.5 Good
Flu Activity Not available.
METAR KVTA 010754Z AUTO 02003KT 7SM BKN009 BKN013 OVC023 10/09 A2999 RMK AO2 CIG 007V011 SLP154 T01000089

More Conditions Fewer Conditions

10-Day Weather Forecast

Almanac

Astronomy

Oct. 01, 2014 Rise Set
Actual Time 7:25 AM EDT 7:12 PM EDT
Civil Twilight 6:58 AM EDT 7:38 PM EDT
Nautical Twilight 6:27 AM EDT 8:10 PM EDT
Astronomical Twilight 5:56 AM EDT 8:41 PM EDT
Moon 2:25 PM EDT No Moon Set
Length of Visible Light 12h 39m
Length of Day
11h 46m
Tomorrow will be 2m 34s shorter.
Waxing Crescent, 45% of the Moon is Illuminated
Today
Waxing Crescent
Oct 1
First Quarter
Oct 8
Full
Oct 15
Last Quarter
Oct 23
New

Today's Extremes

State Highs State Lows

Community

WunderPhotos

Upload Photos

1,757,902 photos uploaded!

Nearby

Air Quality

  Air Quality AQ Index Pollutant
Yesterday Good
PM2.5
Yesterday Good
OZONE
Current Good
PM2.5
Current Good
OZONE
Wednesday Moderate
PM2.5
Wednesday Moderate
OZONE
Thursday Moderate
PM2.5
Thursday Moderate
OZONE
Friday Good
PM2.5
Friday Good
OZONE
Saturday Good
OZONE
Saturday Good
PM2.5
Sunday Good
OZONE
Sunday Good
PM2.5

Snow Depth

Station Depth Elevation
No new snow has been reported.

Earthquake Activity

City Distance Mag. Time & Date
No recent earthquake activity has been reported nearby.
Minimum magnitude displayed is 2.5.

Coastal Water Temperatures

Place Temperature
No Stations Reporting

Nearby Weather Stations